sensor_id;sensor_type;location;lat;lon;timestamp;P1;durP1;ratioP1;P2;durP2;ratioP2
18334;SDS011;9293;49.524;10.964;2022-08-11T00:01:23;4.90;;;3.28;;
18334;SDS011;9293;49.524;10.964;2022-08-11T00:03:54;8.45;;;3.05;;
18334;SDS011;9293;49.524;10.964;2022-08-11T00:06:31;3.15;;;2.40;;
18334;SDS011;9293;49.524;10.964;2022-08-11T00:09:04;5.13;;;2.33;;
18334;SDS011;9293;49.524;10.964;2022-08-11T00:11:40;3.83;;;2.58;;
18334;SDS011;9293;49.524;10.964;2022-08-11T00:14:14;5.80;;;2.60;;
18334;SDS011;9293;49.524;10.964;2022-08-11T00:16:42;5.03;;;3.20;;
18334;SDS011;9293;49.524;10.964;2022-08-11T00:19:20;4.90;;;3.03;;
18334;SDS011;9293;49.524;10.964;2022-08-11T00:22:19;4.05;;;3.25;;
18334;SDS011;9293;49.524;10.964;2022-08-11T00:24:48;6.13;;;3.80;;
18334;SDS011;9293;49.524;10.964;2022-08-11T00:27:30;6.63;;;3.60;;
18334;SDS011;9293;49.524;10.964;2022-08-11T00:30:03;6.80;;;3.50;;
18334;SDS011;9293;49.524;10.964;2022-08-11T00:32:32;6.70;;;3.15;;
18334;SDS011;9293;49.524;10.964;2022-08-11T00:35:04;4.78;;;3.25;;
18334;SDS011;9293;49.524;10.964;2022-08-11T00:37:55;7.72;;;3.35;;
18334;SDS011;9293;49.524;10.964;2022-08-11T00:40:27;6.93;;;3.67;;
18334;SDS011;9293;49.524;10.964;2022-08-11T00:43:34;5.47;;;3.75;;
18334;SDS011;9293;49.524;10.964;2022-08-11T00:46:03;8.33;;;3.63;;
18334;SDS011;9293;49.524;10.964;2022-08-11T01:02:07;6.85;;;3.70;;
18334;SDS011;9293;49.524;10.964;2022-08-11T01:17:08;7.20;;;3.58;;
18334;SDS011;9293;49.524;10.964;2022-08-11T01:44:11;8.18;;;3.67;;
18334;SDS011;9293;49.524;10.964;2022-08-11T01:53:27;6.10;;;3.63;;
18334;SDS011;9293;49.524;10.964;2022-08-11T01:56:15;9.60;;;3.25;;
18334;SDS011;9293;49.524;10.964;2022-08-11T02:02:17;5.93;;;3.65;;
18334;SDS011;9293;49.524;10.964;2022-08-11T02:05:21;10.55;;;4.60;;
18334;SDS011;9293;49.524;10.964;2022-08-11T02:11:25;9.75;;;4.30;;
18334;SDS011;9293;49.524;10.964;2022-08-11T02:17:12;6.47;;;3.70;;
18334;SDS011;9293;49.524;10.964;2022-08-11T02:20:00;5.72;;;3.70;;
18334;SDS011;9293;49.524;10.964;2022-08-11T02:22:57;6.18;;;3.72;;
18334;SDS011;9293;49.524;10.964;2022-08-11T02:34:46;5.65;;;3.92;;
18334;SDS011;9293;49.524;10.964;2022-08-11T02:42:54;5.55;;;3.95;;
18334;SDS011;9293;49.524;10.964;2022-08-11T02:48:32;8.57;;;3.60;;
18334;SDS011;9293;49.524;10.964;2022-08-11T02:51:59;5.63;;;3.53;;
18334;SDS011;9293;49.524;10.964;2022-08-11T02:57:42;9.80;;;4.38;;
18334;SDS011;9293;49.524;10.964;2022-08-11T03:00:29;7.82;;;3.90;;
18334;SDS011;9293;49.524;10.964;2022-08-11T03:03:34;5.05;;;4.10;;
18334;SDS011;9293;49.524;10.964;2022-08-11T03:06:32;5.53;;;3.75;;
18334;SDS011;9293;49.524;10.964;2022-08-11T03:09:26;4.13;;;3.72;;
18334;SDS011;9293;49.524;10.964;2022-08-11T03:12:20;6.30;;;4.38;;
18334;SDS011;9293;49.524;10.964;2022-08-11T03:15:25;5.13;;;3.90;;
18334;SDS011;9293;49.524;10.964;2022-08-11T03:18:26;8.25;;;4.10;;
18334;SDS011;9293;49.524;10.964;2022-08-11T03:21:01;7.00;;;3.90;;
18334;SDS011;9293;49.524;10.964;2022-08-11T03:24:20;5.95;;;3.70;;
18334;SDS011;9293;49.524;10.964;2022-08-11T03:29:36;4.53;;;3.65;;
18334;SDS011;9293;49.524;10.964;2022-08-11T03:35:36;5.80;;;3.80;;
18334;SDS011;9293;49.524;10.964;2022-08-11T03:38:11;8.07;;;4.25;;
18334;SDS011;9293;49.524;10.964;2022-08-11T03:40:46;5.90;;;3.95;;
18334;SDS011;9293;49.524;10.964;2022-08-11T03:44:22;11.35;;;4.65;;
18334;SDS011;9293;49.524;10.964;2022-08-11T03:59:12;9.93;;;4.60;;
18334;SDS011;9293;49.524;10.964;2022-08-11T04:16:09;11.57;;;4.97;;
18334;SDS011;9293;49.524;10.964;2022-08-11T04:29:55;8.52;;;5.10;;
18334;SDS011;9293;49.524;10.964;2022-08-11T04:32:44;7.00;;;4.78;;
18334;SDS011;9293;49.524;10.964;2022-08-11T04:44:53;11.48;;;4.60;;
18334;SDS011;9293;49.524;10.964;2022-08-11T04:54:07;12.63;;;5.20;;
18334;SDS011;9293;49.524;10.964;2022-08-11T04:57:19;12.85;;;5.00;;
18334;SDS011;9293;49.524;10.964;2022-08-11T05:00:19;7.43;;;5.20;;
18334;SDS011;9293;49.524;10.964;2022-08-11T05:06:29;9.05;;;4.72;;
18334;SDS011;9293;49.524;10.964;2022-08-11T05:12:29;6.95;;;4.35;;
18334;SDS011;9293;49.524;10.964;2022-08-11T05:15:00;9.80;;;5.10;;
18334;SDS011;9293;49.524;10.964;2022-08-11T05:18:32;9.32;;;4.60;;
18334;SDS011;9293;49.524;10.964;2022-08-11T05:21:03;7.95;;;4.72;;
18334;SDS011;9293;49.524;10.964;2022-08-11T05:24:12;8.18;;;4.35;;
18334;SDS011;9293;49.524;10.964;2022-08-11T05:27:06;9.55;;;5.82;;
18334;SDS011;9293;49.524;10.964;2022-08-11T05:30:06;9.90;;;5.25;;
18334;SDS011;9293;49.524;10.964;2022-08-11T05:38:57;5.00;;;4.22;;
18334;SDS011;9293;49.524;10.964;2022-08-11T05:42:01;10.88;;;4.82;;
18334;SDS011;9293;49.524;10.964;2022-08-11T05:45:00;16.67;;;4.20;;
18334;SDS011;9293;49.524;10.964;2022-08-11T05:48:14;6.57;;;3.85;;
18334;SDS011;9293;49.524;10.964;2022-08-11T05:51:01;4.88;;;3.33;;
18334;SDS011;9293;49.524;10.964;2022-08-11T05:53:57;7.72;;;3.40;;
18334;SDS011;9293;49.524;10.964;2022-08-11T05:56:55;7.22;;;3.15;;
18334;SDS011;9293;49.524;10.964;2022-08-11T05:59:27;4.72;;;3.65;;
18334;SDS011;9293;49.524;10.964;2022-08-11T06:02:04;11.68;;;3.40;;
18334;SDS011;9293;49.524;10.964;2022-08-11T06:04:35;9.70;;;4.13;;
18334;SDS011;9293;49.524;10.964;2022-08-11T06:07:06;13.35;;;3.40;;
18334;SDS011;9293;49.524;10.964;2022-08-11T06:12:16;9.05;;;3.50;;
18334;SDS011;9293;49.524;10.964;2022-08-11T06:14:55;4.57;;;3.20;;
18334;SDS011;9293;49.524;10.964;2022-08-11T06:17:28;6.05;;;3.05;;
18334;SDS011;9293;49.524;10.964;2022-08-11T06:20:05;6.65;;;3.38;;
18334;SDS011;9293;49.524;10.964;2022-08-11T06:22:38;10.25;;;2.95;;
18334;SDS011;9293;49.524;10.964;2022-08-11T06:25:14;4.35;;;3.20;;
18334;SDS011;9293;49.524;10.964;2022-08-11T06:27:43;6.50;;;2.58;;
18334;SDS011;9293;49.524;10.964;2022-08-11T06:30:12;6.78;;;2.97;;
18334;SDS011;9293;49.524;10.964;2022-08-11T06:32:44;5.38;;;2.70;;
18334;SDS011;9293;49.524;10.964;2022-08-11T06:38:09;4.75;;;2.90;;
18334;SDS011;9293;49.524;10.964;2022-08-11T06:41:02;4.70;;;2.92;;
18334;SDS011;9293;49.524;10.964;2022-08-11T06:46:44;4.10;;;2.60;;
18334;SDS011;9293;49.524;10.964;2022-08-11T06:49:14;4.57;;;2.47;;
18334;SDS011;9293;49.524;10.964;2022-08-11T06:52:10;9.82;;;3.03;;
18334;SDS011;9293;49.524;10.964;2022-08-11T06:55:04;3.70;;;2.47;;
18334;SDS011;9293;49.524;10.964;2022-08-11T06:58:02;5.05;;;2.65;;
18334;SDS011;9293;49.524;10.964;2022-08-11T07:00:49;6.40;;;2.60;;
18334;SDS011;9293;49.524;10.964;2022-08-11T07:03:23;8.75;;;2.60;;
18334;SDS011;9293;49.524;10.964;2022-08-11T07:06:01;7.80;;;2.35;;
18334;SDS011;9293;49.524;10.964;2022-08-11T07:08:52;9.18;;;2.67;;
18334;SDS011;9293;49.524;10.964;2022-08-11T07:14:51;3.63;;;2.30;;
18334;SDS011;9293;49.524;10.964;2022-08-11T07:17:57;4.45;;;2.20;;
18334;SDS011;9293;49.524;10.964;2022-08-11T07:20:49;2.80;;;2.10;;
18334;SDS011;9293;49.524;10.964;2022-08-11T07:24:03;3.58;;;2.28;;
18334;SDS011;9293;49.524;10.964;2022-08-11T07:27:17;4.55;;;2.05;;
18334;SDS011;9293;49.524;10.964;2022-08-11T07:30:07;4.43;;;2.05;;
18334;SDS011;9293;49.524;10.964;2022-08-11T07:32:40;4.43;;;2.15;;
18334;SDS011;9293;49.524;10.964;2022-08-11T07:35:16;3.00;;;2.30;;
18334;SDS011;9293;49.524;10.964;2022-08-11T07:37:52;2.65;;;2.05;;
18334;SDS011;9293;49.524;10.964;2022-08-11T07:40:33;4.45;;;2.28;;
18334;SDS011;9293;49.524;10.964;2022-08-11T07:43:03;5.20;;;1.88;;
18334;SDS011;9293;49.524;10.964;2022-08-11T07:45:33;4.05;;;2.00;;
18334;SDS011;9293;49.524;10.964;2022-08-11T07:48:22;6.10;;;2.08;;
18334;SDS011;9293;49.524;10.964;2022-08-11T07:51:09;5.18;;;3.28;;
18334;SDS011;9293;49.524;10.964;2022-08-11T07:53:58;5.05;;;2.50;;
18334;SDS011;9293;49.524;10.964;2022-08-11T07:56:42;2.42;;;2.00;;
18334;SDS011;9293;49.524;10.964;2022-08-11T07:59:31;4.55;;;2.08;;
18334;SDS011;9293;49.524;10.964;2022-08-11T08:02:37;3.40;;;2.13;;
18334;SDS011;9293;49.524;10.964;2022-08-11T08:05:25;4.10;;;2.30;;
18334;SDS011;9293;49.524;10.964;2022-08-11T08:08:12;2.92;;;2.05;;
18334;SDS011;9293;49.524;10.964;2022-08-11T08:11:00;5.05;;;2.20;;
18334;SDS011;9293;49.524;10.964;2022-08-11T08:13:54;4.22;;;1.88;;
18334;SDS011;9293;49.524;10.964;2022-08-11T08:16:41;2.25;;;1.70;;
18334;SDS011;9293;49.524;10.964;2022-08-11T08:19:28;4.28;;;1.90;;
18334;SDS011;9293;49.524;10.964;2022-08-11T08:21:57;4.05;;;1.88;;
18334;SDS011;9293;49.524;10.964;2022-08-11T08:24:47;7.32;;;1.90;;
18334;SDS011;9293;49.524;10.964;2022-08-11T08:27:16;5.55;;;1.58;;
18334;SDS011;9293;49.524;10.964;2022-08-11T08:29:44;2.97;;;1.58;;
18334;SDS011;9293;49.524;10.964;2022-08-11T08:32:42;6.93;;;1.90;;
18334;SDS011;9293;49.524;10.964;2022-08-11T08:35:11;11.05;;;2.03;;
18334;SDS011;9293;49.524;10.964;2022-08-11T08:37:39;7.68;;;2.30;;
18334;SDS011;9293;49.524;10.964;2022-08-11T08:40:13;5.32;;;1.75;;
18334;SDS011;9293;49.524;10.964;2022-08-11T08:42:44;4.28;;;1.98;;
18334;SDS011;9293;49.524;10.964;2022-08-11T08:45:18;8.98;;;2.20;;
18334;SDS011;9293;49.524;10.964;2022-08-11T08:48:00;6.32;;;1.90;;
18334;SDS011;9293;49.524;10.964;2022-08-11T08:50:35;3.33;;;1.92;;
18334;SDS011;9293;49.524;10.964;2022-08-11T08:53:28;3.47;;;2.08;;
18334;SDS011;9293;49.524;10.964;2022-08-11T08:56:02;3.75;;;1.90;;
18334;SDS011;9293;49.524;10.964;2022-08-11T08:58:32;5.18;;;1.90;;
18334;SDS011;9293;49.524;10.964;2022-08-11T09:01:02;5.55;;;1.95;;
18334;SDS011;9293;49.524;10.964;2022-08-11T09:03:35;5.55;;;1.85;;
18334;SDS011;9293;49.524;10.964;2022-08-11T09:06:24;3.10;;;1.52;;
18334;SDS011;9293;49.524;10.964;2022-08-11T09:08:53;7.43;;;1.77;;
18334;SDS011;9293;49.524;10.964;2022-08-11T09:11:22;7.07;;;1.83;;
18334;SDS011;9293;49.524;10.964;2022-08-11T09:14:09;3.92;;;1.63;;
18334;SDS011;9293;49.524;10.964;2022-08-11T09:16:40;7.35;;;2.08;;
18334;SDS011;9293;49.524;10.964;2022-08-11T09:19:12;4.47;;;1.40;;
18334;SDS011;9293;49.524;10.964;2022-08-11T09:21:45;3.60;;;1.50;;
18334;SDS011;9293;49.524;10.964;2022-08-11T09:24:37;5.05;;;1.70;;
18334;SDS011;9293;49.524;10.964;2022-08-11T09:27:24;4.43;;;1.73;;
18334;SDS011;9293;49.524;10.964;2022-08-11T09:29:53;3.65;;;1.70;;
18334;SDS011;9293;49.524;10.964;2022-08-11T09:32:22;2.80;;;1.50;;
18334;SDS011;9293;49.524;10.964;2022-08-11T09:34:53;3.90;;;1.60;;
18334;SDS011;9293;49.524;10.964;2022-08-11T09:37:21;4.03;;;2.00;;
18334;SDS011;9293;49.524;10.964;2022-08-11T09:40:21;3.97;;;1.83;;
18334;SDS011;9293;49.524;10.964;2022-08-11T09:43:02;4.60;;;1.90;;
18334;SDS011;9293;49.524;10.964;2022-08-11T09:45:52;3.17;;;1.50;;
18334;SDS011;9293;49.524;10.964;2022-08-11T09:48:23;2.67;;;1.70;;
18334;SDS011;9293;49.524;10.964;2022-08-11T09:53:24;6.00;;;1.80;;
18334;SDS011;9293;49.524;10.964;2022-08-11T09:56:07;7.68;;;1.90;;
18334;SDS011;9293;49.524;10.964;2022-08-11T09:59:02;4.13;;;1.80;;
18334;SDS011;9293;49.524;10.964;2022-08-11T10:02:06;3.75;;;1.60;;
18334;SDS011;9293;49.524;10.964;2022-08-11T10:04:39;2.53;;;1.85;;
18334;SDS011;9293;49.524;10.964;2022-08-11T10:07:09;4.22;;;1.58;;
18334;SDS011;9293;49.524;10.964;2022-08-11T10:09:42;9.65;;;2.15;;
18334;SDS011;9293;49.524;10.964;2022-08-11T10:12:22;1.52;;;1.30;;
18334;SDS011;9293;49.524;10.964;2022-08-11T10:15:06;2.65;;;1.35;;
18334;SDS011;9293;49.524;10.964;2022-08-11T10:17:58;3.70;;;1.73;;
18334;SDS011;9293;49.524;10.964;2022-08-11T10:21:01;1.90;;;1.30;;
18334;SDS011;9293;49.524;10.964;2022-08-11T10:23:35;3.92;;;1.52;;
18334;SDS011;9293;49.524;10.964;2022-08-11T10:26:27;4.40;;;1.75;;
18334;SDS011;9293;49.524;10.964;2022-08-11T10:29:52;3.65;;;1.65;;
18334;SDS011;9293;49.524;10.964;2022-08-11T10:32:32;4.88;;;1.60;;
18334;SDS011;9293;49.524;10.964;2022-08-11T10:35:25;4.45;;;1.50;;
18334;SDS011;9293;49.524;10.964;2022-08-11T10:37:55;1.60;;;1.20;;
18334;SDS011;9293;49.524;10.964;2022-08-11T10:40:39;3.53;;;1.55;;
18334;SDS011;9293;49.524;10.964;2022-08-11T10:43:11;4.28;;;1.77;;
18334;SDS011;9293;49.524;10.964;2022-08-11T10:46:01;6.10;;;2.13;;
18334;SDS011;9293;49.524;10.964;2022-08-11T10:48:55;2.75;;;2.20;;
18334;SDS011;9293;49.524;10.964;2022-08-11T10:51:26;2.03;;;1.80;;
18334;SDS011;9293;49.524;10.964;2022-08-11T10:54:17;2.92;;;1.35;;
18334;SDS011;9293;49.524;10.964;2022-08-11T10:57:07;4.03;;;1.60;;
18334;SDS011;9293;49.524;10.964;2022-08-11T10:59:55;5.07;;;1.73;;
18334;SDS011;9293;49.524;10.964;2022-08-11T11:02:24;2.88;;;1.85;;
18334;SDS011;9293;49.524;10.964;2022-08-11T11:05:04;3.88;;;1.58;;
18334;SDS011;9293;49.524;10.964;2022-08-11T11:07:37;3.42;;;1.90;;
18334;SDS011;9293;49.524;10.964;2022-08-11T11:10:48;2.72;;;1.67;;
18334;SDS011;9293;49.524;10.964;2022-08-11T11:13:16;2.17;;;1.40;;
18334;SDS011;9293;49.524;10.964;2022-08-11T11:16:18;3.53;;;1.58;;
18334;SDS011;9293;49.524;10.964;2022-08-11T11:19:06;3.03;;;1.85;;
18334;SDS011;9293;49.524;10.964;2022-08-11T11:24:12;3.72;;;1.60;;
18334;SDS011;9293;49.524;10.964;2022-08-11T11:27:13;2.00;;;1.23;;
18334;SDS011;9293;49.524;10.964;2022-08-11T11:30:04;3.08;;;1.50;;
18334;SDS011;9293;49.524;10.964;2022-08-11T11:38:06;4.25;;;1.50;;
18334;SDS011;9293;49.524;10.964;2022-08-11T11:40:42;3.33;;;1.40;;
18334;SDS011;9293;49.524;10.964;2022-08-11T11:43:31;3.42;;;1.25;;
18334;SDS011;9293;49.524;10.964;2022-08-11T11:48:31;1.88;;;1.40;;
18334;SDS011;9293;49.524;10.964;2022-08-11T11:51:02;3.25;;;1.23;;
18334;SDS011;9293;49.524;10.964;2022-08-11T11:53:30;4.90;;;1.38;;
18334;SDS011;9293;49.524;10.964;2022-08-11T11:56:00;3.83;;;1.30;;
18334;SDS011;9293;49.524;10.964;2022-08-11T11:58:30;2.05;;;1.48;;
18334;SDS011;9293;49.524;10.964;2022-08-11T12:01:16;1.95;;;1.25;;
18334;SDS011;9293;49.524;10.964;2022-08-11T12:03:52;2.78;;;1.70;;
18334;SDS011;9293;49.524;10.964;2022-08-11T12:06:23;2.05;;;1.20;;
18334;SDS011;9293;49.524;10.964;2022-08-11T12:08:56;2.03;;;1.15;;
18334;SDS011;9293;49.524;10.964;2022-08-11T12:11:27;2.38;;;1.20;;
18334;SDS011;9293;49.524;10.964;2022-08-11T12:14:16;5.22;;;1.60;;
18334;SDS011;9293;49.524;10.964;2022-08-11T12:16:46;3.03;;;1.40;;
18334;SDS011;9293;49.524;10.964;2022-08-11T12:19:16;2.55;;;1.55;;
18334;SDS011;9293;49.524;10.964;2022-08-11T12:21:47;2.10;;;1.20;;
18334;SDS011;9293;49.524;10.964;2022-08-11T12:24:37;4.85;;;1.42;;
18334;SDS011;9293;49.524;10.964;2022-08-11T12:27:26;2.83;;;1.13;;
18334;SDS011;9293;49.524;10.964;2022-08-11T12:30:02;4.60;;;1.38;;
18334;SDS011;9293;49.524;10.964;2022-08-11T12:32:36;3.13;;;1.00;;
18334;SDS011;9293;49.524;10.964;2022-08-11T12:35:08;1.33;;;1.05;;
18334;SDS011;9293;49.524;10.964;2022-08-11T12:37:43;3.55;;;1.10;;
18334;SDS011;9293;49.524;10.964;2022-08-11T12:40:16;2.38;;;1.05;;
18334;SDS011;9293;49.524;10.964;2022-08-11T12:43:29;4.60;;;1.42;;
18334;SDS011;9293;49.524;10.964;2022-08-11T12:46:23;3.65;;;1.30;;
18334;SDS011;9293;49.524;10.964;2022-08-11T12:48:58;2.35;;;1.08;;
18334;SDS011;9293;49.524;10.964;2022-08-11T12:52:00;3.30;;;1.30;;
18334;SDS011;9293;49.524;10.964;2022-08-11T12:57:28;3.83;;;1.45;;
18334;SDS011;9293;49.524;10.964;2022-08-11T13:00:58;2.17;;;1.42;;
18334;SDS011;9293;49.524;10.964;2022-08-11T13:03:46;4.03;;;1.50;;
18334;SDS011;9293;49.524;10.964;2022-08-11T13:06:33;3.15;;;1.10;;
18334;SDS011;9293;49.524;10.964;2022-08-11T13:09:14;2.50;;;1.20;;
18334;SDS011;9293;49.524;10.964;2022-08-11T13:11:43;8.40;;;1.65;;
18334;SDS011;9293;49.524;10.964;2022-08-11T13:14:31;4.32;;;1.25;;
18334;SDS011;9293;49.524;10.964;2022-08-11T13:17:05;2.95;;;1.15;;
18334;SDS011;9293;49.524;10.964;2022-08-11T13:20:11;3.03;;;1.20;;
18334;SDS011;9293;49.524;10.964;2022-08-11T13:23:01;7.35;;;1.55;;
18334;SDS011;9293;49.524;10.964;2022-08-11T13:25:44;10.18;;;1.85;;
18334;SDS011;9293;49.524;10.964;2022-08-11T13:28:16;3.58;;;1.42;;
18334;SDS011;9293;49.524;10.964;2022-08-11T13:30:58;2.92;;;1.35;;
18334;SDS011;9293;49.524;10.964;2022-08-11T13:33:56;3.20;;;1.50;;
18334;SDS011;9293;49.524;10.964;2022-08-11T13:36:33;5.07;;;1.40;;
18334;SDS011;9293;49.524;10.964;2022-08-11T13:39:06;4.38;;;1.58;;
18334;SDS011;9293;49.524;10.964;2022-08-11T13:41:34;1.73;;;1.30;;
18334;SDS011;9293;49.524;10.964;2022-08-11T13:44:09;6.07;;;1.48;;
18334;SDS011;9293;49.524;10.964;2022-08-11T13:46:55;3.33;;;1.33;;
18334;SDS011;9293;49.524;10.964;2022-08-11T13:49:28;1.92;;;1.25;;
18334;SDS011;9293;49.524;10.964;2022-08-11T13:51:59;2.30;;;1.20;;
18334;SDS011;9293;49.524;10.964;2022-08-11T13:54:30;2.05;;;1.20;;
18334;SDS011;9293;49.524;10.964;2022-08-11T13:57:06;3.65;;;1.20;;
18334;SDS011;9293;49.524;10.964;2022-08-11T13:59:59;5.22;;;1.63;;
18334;SDS011;9293;49.524;10.964;2022-08-11T14:02:53;4.50;;;1.42;;
18334;SDS011;9293;49.524;10.964;2022-08-11T14:05:31;2.23;;;1.30;;
18334;SDS011;9293;49.524;10.964;2022-08-11T14:08:15;11.23;;;1.48;;
18334;SDS011;9293;49.524;10.964;2022-08-11T14:11:04;5.18;;;1.50;;
18334;SDS011;9293;49.524;10.964;2022-08-11T14:14:14;6.60;;;1.52;;
18334;SDS011;9293;49.524;10.964;2022-08-11T14:16:49;4.45;;;1.50;;
18334;SDS011;9293;49.524;10.964;2022-08-11T14:19:20;4.85;;;1.65;;
18334;SDS011;9293;49.524;10.964;2022-08-11T14:21:52;6.95;;;1.52;;
18334;SDS011;9293;49.524;10.964;2022-08-11T14:24:38;3.45;;;1.50;;
18334;SDS011;9293;49.524;10.964;2022-08-11T14:27:08;4.70;;;1.30;;
18334;SDS011;9293;49.524;10.964;2022-08-11T14:30:01;3.55;;;1.30;;
18334;SDS011;9293;49.524;10.964;2022-08-11T14:32:31;5.72;;;1.48;;
18334;SDS011;9293;49.524;10.964;2022-08-11T14:35:18;4.57;;;1.42;;
18334;SDS011;9293;49.524;10.964;2022-08-11T14:37:46;5.25;;;3.63;;
18334;SDS011;9293;49.524;10.964;2022-08-11T14:40:15;4.03;;;1.55;;
18334;SDS011;9293;49.524;10.964;2022-08-11T14:43:02;2.47;;;1.20;;
18334;SDS011;9293;49.524;10.964;2022-08-11T14:46:12;3.63;;;1.52;;
18334;SDS011;9293;49.524;10.964;2022-08-11T14:49:18;4.70;;;1.40;;
18334;SDS011;9293;49.524;10.964;2022-08-11T14:51:46;2.17;;;1.30;;
18334;SDS011;9293;49.524;10.964;2022-08-11T14:54:15;3.17;;;1.60;;
18334;SDS011;9293;49.524;10.964;2022-08-11T14:57:02;2.35;;;1.20;;
18334;SDS011;9293;49.524;10.964;2022-08-11T14:59:30;4.30;;;1.20;;
18334;SDS011;9293;49.524;10.964;2022-08-11T15:02:00;4.70;;;1.75;;
18334;SDS011;9293;49.524;10.964;2022-08-11T15:04:49;2.83;;;1.75;;
18334;SDS011;9293;49.524;10.964;2022-08-11T15:07:17;3.92;;;1.73;;
18334;SDS011;9293;49.524;10.964;2022-08-11T15:10:03;7.53;;;1.38;;
18334;SDS011;9293;49.524;10.964;2022-08-11T15:12:39;5.25;;;1.33;;
18334;SDS011;9293;49.524;10.964;2022-08-11T15:15:10;4.90;;;1.63;;
18334;SDS011;9293;49.524;10.964;2022-08-11T15:17:58;6.72;;;1.63;;
18334;SDS011;9293;49.524;10.964;2022-08-11T15:23:19;4.38;;;1.63;;
18334;SDS011;9293;49.524;10.964;2022-08-11T15:26:09;8.68;;;1.45;;
18334;SDS011;9293;49.524;10.964;2022-08-11T15:29:19;3.95;;;1.70;;
18334;SDS011;9293;49.524;10.964;2022-08-11T15:32:08;4.15;;;1.50;;
18334;SDS011;9293;49.524;10.964;2022-08-11T15:34:52;5.53;;;1.48;;
18334;SDS011;9293;49.524;10.964;2022-08-11T15:37:43;7.53;;;1.48;;
18334;SDS011;9293;49.524;10.964;2022-08-11T15:40:23;4.87;;;1.60;;
18334;SDS011;9293;49.524;10.964;2022-08-11T15:43:17;4.32;;;1.40;;
18334;SDS011;9293;49.524;10.964;2022-08-11T15:46:10;2.72;;;1.13;;
18334;SDS011;9293;49.524;10.964;2022-08-11T15:49:30;5.25;;;1.45;;
18334;SDS011;9293;49.524;10.964;2022-08-11T15:52:32;5.97;;;1.33;;
18334;SDS011;9293;49.524;10.964;2022-08-11T15:55:09;2.33;;;1.50;;
18334;SDS011;9293;49.524;10.964;2022-08-11T15:57:38;4.32;;;1.33;;
18334;SDS011;9293;49.524;10.964;2022-08-11T16:00:26;1.92;;;1.30;;
18334;SDS011;9293;49.524;10.964;2022-08-11T16:03:19;3.70;;;1.38;;
18334;SDS011;9293;49.524;10.964;2022-08-11T16:06:28;6.55;;;1.42;;
18334;SDS011;9293;49.524;10.964;2022-08-11T16:08:59;5.03;;;1.40;;
18334;SDS011;9293;49.524;10.964;2022-08-11T16:11:44;4.03;;;1.67;;
18334;SDS011;9293;49.524;10.964;2022-08-11T16:14:13;2.00;;;1.35;;
18334;SDS011;9293;49.524;10.964;2022-08-11T16:17:03;6.63;;;1.83;;
18334;SDS011;9293;49.524;10.964;2022-08-11T16:22:04;5.40;;;1.33;;
18334;SDS011;9293;49.524;10.964;2022-08-11T16:24:37;6.38;;;1.50;;
18334;SDS011;9293;49.524;10.964;2022-08-11T16:27:42;3.17;;;1.42;;
18334;SDS011;9293;49.524;10.964;2022-08-11T16:30:14;4.63;;;1.60;;
18334;SDS011;9293;49.524;10.964;2022-08-11T16:32:46;4.68;;;1.50;;
18334;SDS011;9293;49.524;10.964;2022-08-11T16:35:23;5.13;;;1.70;;
18334;SDS011;9293;49.524;10.964;2022-08-11T16:38:10;5.05;;;1.38;;
18334;SDS011;9293;49.524;10.964;2022-08-11T16:40:59;3.50;;;1.40;;
18334;SDS011;9293;49.524;10.964;2022-08-11T16:43:43;3.90;;;1.40;;
18334;SDS011;9293;49.524;10.964;2022-08-11T16:46:31;4.40;;;1.35;;
18334;SDS011;9293;49.524;10.964;2022-08-11T16:49:32;2.65;;;1.58;;
18334;SDS011;9293;49.524;10.964;2022-08-11T16:52:04;4.95;;;1.88;;
18334;SDS011;9293;49.524;10.964;2022-08-11T16:54:37;3.63;;;1.30;;
18334;SDS011;9293;49.524;10.964;2022-08-11T16:57:17;4.45;;;1.58;;
18334;SDS011;9293;49.524;10.964;2022-08-11T17:00:09;2.50;;;1.20;;
18334;SDS011;9293;49.524;10.964;2022-08-11T17:02:51;2.70;;;1.00;;
18334;SDS011;9293;49.524;10.964;2022-08-11T17:05:42;4.25;;;1.17;;
18334;SDS011;9293;49.524;10.964;2022-08-11T17:08:39;2.78;;;1.45;;
18334;SDS011;9293;49.524;10.964;2022-08-11T17:11:33;2.67;;;1.55;;
18334;SDS011;9293;49.524;10.964;2022-08-11T17:14:28;8.05;;;2.63;;
18334;SDS011;9293;49.524;10.964;2022-08-11T17:17:04;3.67;;;1.50;;
18334;SDS011;9293;49.524;10.964;2022-08-11T17:19:36;4.40;;;1.50;;
18334;SDS011;9293;49.524;10.964;2022-08-11T17:22:29;5.97;;;1.75;;
18334;SDS011;9293;49.524;10.964;2022-08-11T17:25:16;4.03;;;1.70;;
18334;SDS011;9293;49.524;10.964;2022-08-11T17:27:46;4.65;;;1.70;;
18334;SDS011;9293;49.524;10.964;2022-08-11T17:32:48;3.75;;;1.30;;
18334;SDS011;9293;49.524;10.964;2022-08-11T17:35:40;4.00;;;1.60;;
18334;SDS011;9293;49.524;10.964;2022-08-11T17:40:47;6.97;;;1.97;;
18334;SDS011;9293;49.524;10.964;2022-08-11T17:43:49;4.15;;;1.75;;
18334;SDS011;9293;49.524;10.964;2022-08-11T17:46:38;5.50;;;1.63;;
18334;SDS011;9293;49.524;10.964;2022-08-11T17:49:31;3.35;;;1.83;;
18334;SDS011;9293;49.524;10.964;2022-08-11T17:52:04;5.95;;;1.83;;
18334;SDS011;9293;49.524;10.964;2022-08-11T17:54:55;2.10;;;1.50;;
18334;SDS011;9293;49.524;10.964;2022-08-11T17:58:03;3.65;;;1.38;;
18334;SDS011;9293;49.524;10.964;2022-08-11T18:00:50;3.15;;;1.48;;
18334;SDS011;9293;49.524;10.964;2022-08-11T18:03:20;4.30;;;1.63;;
18334;SDS011;9293;49.524;10.964;2022-08-11T18:06:01;3.45;;;1.60;;
18334;SDS011;9293;49.524;10.964;2022-08-11T18:08:30;4.43;;;1.60;;
18334;SDS011;9293;49.524;10.964;2022-08-11T18:11:20;3.97;;;1.75;;
18334;SDS011;9293;49.524;10.964;2022-08-11T18:14:31;2.33;;;1.20;;
18334;SDS011;9293;49.524;10.964;2022-08-11T18:17:19;2.70;;;1.60;;
18334;SDS011;9293;49.524;10.964;2022-08-11T18:20:06;8.63;;;1.63;;
18334;SDS011;9293;49.524;10.964;2022-08-11T18:22:53;8.05;;;1.63;;
18334;SDS011;9293;49.524;10.964;2022-08-11T18:25:43;4.75;;;1.90;;
18334;SDS011;9293;49.524;10.964;2022-08-11T18:28:38;3.05;;;1.67;;
18334;SDS011;9293;49.524;10.964;2022-08-11T18:31:31;3.85;;;1.30;;
18334;SDS011;9293;49.524;10.964;2022-08-11T18:34:30;4.13;;;1.80;;
18334;SDS011;9293;49.524;10.964;2022-08-11T18:37:23;3.13;;;1.40;;
18334;SDS011;9293;49.524;10.964;2022-08-11T18:40:13;3.97;;;2.00;;
18334;SDS011;9293;49.524;10.964;2022-08-11T18:43:05;4.65;;;1.98;;
18334;SDS011;9293;49.524;10.964;2022-08-11T18:45:58;5.75;;;1.65;;
18334;SDS011;9293;49.524;10.964;2022-08-11T18:48:54;4.38;;;1.55;;
18334;SDS011;9293;49.524;10.964;2022-08-11T18:51:53;4.47;;;1.55;;
18334;SDS011;9293;49.524;10.964;2022-08-11T18:54:41;13.20;;;10.32;;
18334;SDS011;9293;49.524;10.964;2022-08-11T18:57:35;5.30;;;2.22;;
18334;SDS011;9293;49.524;10.964;2022-08-11T19:00:28;15.20;;;2.30;;
18334;SDS011;9293;49.524;10.964;2022-08-11T19:03:17;3.38;;;1.70;;
18334;SDS011;9293;49.524;10.964;2022-08-11T19:06:15;4.80;;;1.98;;
18334;SDS011;9293;49.524;10.964;2022-08-11T19:09:07;5.05;;;1.83;;
18334;SDS011;9293;49.524;10.964;2022-08-11T19:11:59;6.63;;;2.00;;
18334;SDS011;9293;49.524;10.964;2022-08-11T19:14:47;6.20;;;2.13;;
18334;SDS011;9293;49.524;10.964;2022-08-11T19:17:39;6.55;;;2.22;;
18334;SDS011;9293;49.524;10.964;2022-08-11T19:20:28;4.55;;;1.95;;
18334;SDS011;9293;49.524;10.964;2022-08-11T19:23:24;8.10;;;2.38;;
18334;SDS011;9293;49.524;10.964;2022-08-11T19:26:17;8.05;;;2.08;;
18334;SDS011;9293;49.524;10.964;2022-08-11T19:29:05;5.15;;;2.15;;
18334;SDS011;9293;49.524;10.964;2022-08-11T19:32:14;5.15;;;1.85;;
18334;SDS011;9293;49.524;10.964;2022-08-11T19:35:01;5.80;;;2.53;;
18334;SDS011;9293;49.524;10.964;2022-08-11T19:37:49;6.55;;;2.28;;
18334;SDS011;9293;49.524;10.964;2022-08-11T19:40:38;6.28;;;2.00;;
18334;SDS011;9293;49.524;10.964;2022-08-11T19:43:25;5.57;;;2.28;;
18334;SDS011;9293;49.524;10.964;2022-08-11T19:46:16;4.15;;;2.75;;
18334;SDS011;9293;49.524;10.964;2022-08-11T19:49:05;4.80;;;2.10;;